Pagina principale
METAR-TAF:

METAR-TAF

Aeroporti :

Aeroporto di Lugano-Agno

Lugano, Svizzera

latitudine: 46-00N, longitudine: 008-58E, altezza: 273 m

Osservazione

Il bollettino è stato emesso 15 minuti fa, alle 20:50 UTC
Vento 1 kt da nord
Temperature 9°C
Umidità 76%
Pressione 1020 hPa
Visibilità: 8000 m

METAR: LSZA 212050Z AUTO 36001KT 8000 NCD 09/05 Q1020

Ora: 22:05 (21:05 UTC)

Previsione

Il bollettino è stato emesso 6 ore e 40 minuti fa, alle 14:25 UTC
Previsione valida dal 21 alle 15 UTC al 21 alle 24 UTC
Vento 7 kt da sud
Visibilità 10 km o più
nessuna nube inferiore a 1500 m e nessun cumulonembo
Evoluzione graduale
dal 21 alle 15 UTC al 21 alle 18 UTC
Visibilità 10 km o più
Nuvoloso ad un'altezza di 10000 ft

TAF: LSZA 211425Z 2115/2124 19007KT CAVOK BECMG 2115/2118 9999 BKN100

Osservazioni e previsioni meteorologiche di più di 4000 aeroporti (messaggi METAR e TAF).

Le stazioni disponibili sono rappresentate dai dischi gialli e rossi sulla carta.

Puntare il mouse per vedere il nome della stazione.

Clicca sopra per visualizzare le osservazioni e previsioni meteorologiche.

Per cambiare la mappa : fare clic sui pulsanti verdi con una croce nera per ingrandire, il pulsante verde con un trattino per diminuire, o sulla freccia verde per le mappe adiacenti.


METAR-TAF: